• Join FlightAware (Why Join?)
  • Login
  • US Flag 
12:29PM EST


 

Airport Tracker/Info


-or-


 

Live Flight TrackerFlight Track Log ✈ JZA8822 ✈ 30-Apr-2014 ✈ CYHZ - CYYT

Flight Track Log - Related Links

Times and Time Zones

All times are in EDT time to prevent confusion due to time zone crossing. See the JZA8822 flight status page for this flight to view local times or setup timezone preferences in your user account.

Time Position Orientation Groundspeed Altitude Reporting Facility
EDT Latitude Longitude Course Direction KTS MPH feet Rate Location/Type
01:02PM 44.9167 -63.4500 35° Northeast 210 242 2,900  Level Moncton Center
01:03PM 44.9500 -63.3833 55° Northeast 240 276 5,200 2,500 Climbing Moncton Center
01:04PM 44.9667 -63.2833 77° East 260 299 7,900 2,750 Climbing Moncton Center
01:05PM 45.1665 -62.7422 60° Northeast  Level FlightAware Approximate
01:05PM 45.0167 -63.1833 55° Northeast 270 311 10,700  Level Moncton Center
01:06PM 45.2223 -62.5863 60° Northeast  Level FlightAware Approximate
01:06PM 45.0500 -63.1000 60° Northeast 290 334 12,800  Level Moncton Center
01:07PM 45.1000 -62.9833 59° Northeast 330 380 13,700 1,250 Climbing Moncton Center
01:08PM 45.1500 -62.8333 65° Northeast 380 437 15,300 1,750 Climbing Moncton Center
01:09PM 45.2000 -62.6833 65° Northeast 400 460 17,200 1,550 Climbing Moncton Center
01:10PM 45.2333 -62.5500 70° East 410 472 18,400 1,400 Climbing Moncton Center
01:11PM 45.3000 -62.4000 58° Northeast 420 483 20,000 1,600 Climbing Moncton Center
01:12PM 45.3500 -62.2500 65° Northeast 430 495 21,600 1,400 Climbing Moncton Center
01:13PM 45.4167 -62.0833 60° Northeast 430 495 22,800 1,150 Climbing Moncton Center
01:14PM 45.4667 -61.9333 65° Northeast 440 506 23,900 1,150 Climbing Moncton Center
01:15PM 45.5333 -61.7667 60° Northeast 450 518 25,100 1,050 Climbing Moncton Center
01:16PM 45.5833 -61.6167 64° Northeast 460 529 26,000 1,200 Climbing Moncton Center
01:17PM 45.6333 -61.4500 67° East 460 529 27,500 1,350 Climbing Moncton Center
01:18PM 45.7000 -61.2833 60° Northeast 460 529 28,700 1,150 Climbing Moncton Center
01:19PM 45.7667 -61.1333 57° Northeast 450 518 29,800 1,250 Climbing Moncton Center
01:20PM 45.8167 -60.9667 67° East 450 518 31,200 1,250 Climbing Moncton Center
01:21PM 45.8667 -60.8167 64° Northeast 450 518 32,300 1,050 Climbing Moncton Center
01:22PM 45.9333 -60.6500 60° Northeast 450 518 33,300 950 Climbing Moncton Center
01:23PM 45.9833 -60.5000 64° Northeast 440 506 34,200 900 Climbing Moncton Center
01:24PM 46.0333 -60.3500 64° Northeast 450 518 35,100 850 Climbing Moncton Center
01:25PM 46.1000 -60.1667 62° Northeast 440 506 35,900 750 Climbing Moncton Center
01:26PM 46.1500 -60.0167 64° Northeast 440 506 36,600 550 Climbing Moncton Center
01:27PM 46.2167 -59.8667 57° Northeast 420 483 37,000 200 Climbing Moncton Center
01:28PM 46.3000 -59.7500 44° Northeast 430 495 37,000  Level Moncton Center
01:29PM 46.3833 -59.6167 48° Northeast 440 506 37,000  Level Moncton Center
01:30PM 46.4500 -59.4833 54° Northeast 440 506 37,000  Level Moncton Center
01:31PM 46.5333 -59.3333 51° Northeast 440 506 37,000  Level Moncton Center
01:32PM 46.6167 -59.2000 48° Northeast 440 506 37,000  Level Moncton Center
01:33PM 46.6833 -59.0500 57° Northeast 430 495 37,000  Level Moncton Center
01:34PM 46.7667 -58.9167 48° Northeast 430 495 37,000  Level Moncton Center
01:35PM 46.8333 -58.7833 54° Northeast 430 495 37,000  Level Moncton Center
01:36PM 46.9167 -58.6667 44° Northeast 440 506 37,000  Level Moncton Center
01:37PM 46.9833 -58.4833 62° Northeast 440 506 37,000  Level Moncton Center
01:38PM 47.0000 -58.3000 82° East 460 529 37,000  Level Moncton Center
01:39PM 47.0167 -58.1333 82° East 460 529 37,000  Level Moncton Center
01:40PM 47.0500 -57.9333 76° East 470 541 37,000  Level Moncton Center
01:41PM 47.0500 -57.7667 90° East 460 529 37,000  Level Moncton Center
01:42PM 47.0833 -57.5667 76° East 470 541 37,000  Level Moncton Center
01:43PM 47.1000 -57.3667 83° East 470 541 37,000  Level Moncton Center
01:44PM 47.1167 -57.1667 83° East 470 541 37,000  Level Moncton Center
01:45PM 47.1167 -56.9833 90° East 460 529 37,000  Level Moncton Center
01:46PM 47.1500 -56.7833 76° East 470 541 37,000  Level Moncton Center
01:47PM 47.1667 -56.6167 82° East 460 529 37,000  Level Moncton Center
01:48PM 47.1667 -56.4333 90° East 460 529 37,000  Level Moncton Center
01:49PM 47.1833 -56.2333 83° East 460 529 37,000  Level Moncton Center
01:50PM 47.2167 -56.0667 74° East 460 529 37,000  Level Moncton Center
01:51PM 47.2333 -55.8500 83° East 460 529 37,000  Level Moncton Center
01:52PM 47.2333 -55.6833 90° East 450 518 37,000  Level Moncton Center
01:53PM 47.2500 -55.4833 83° East 460 529 37,000  Level Moncton Center
01:54PM 47.2667 -55.3000 82° East 460 529 37,000  Level Moncton Center
01:55PM 47.2667 -55.1000 90° East 460 529 37,000  Level Moncton Center
01:56PM 47.2833 -54.9000 83° East 460 529 37,000  Level Moncton Center
01:57PM 47.3000 -54.7333 82° East 460 529 37,000 -1,200 Level Moncton Center
01:58PM 47.3000 -54.5333 90° East 470 541 34,600 -2,850 Descending Moncton Center
01:59PM 47.3167 -54.3500 82° East 470 541 31,300 -3,250 Descending Moncton Center
02:00PM 47.3333 -54.1833 82° East 460 529 28,100 -3,400 Descending Moncton Center
02:01PM 47.3500 -53.9667 83° East 460 529 24,500 -3,300 Descending Moncton Center
02:02PM 47.3500 -53.8000 90° East 450 518 21,500 -2,300 Descending Moncton Center
02:03PM 47.3333 -53.6333 98° East 420 483 19,900 -1,450 Descending Moncton Center
02:04PM 47.3333 -53.4833 90° East 380 437 18,600 -1,350 Descending Moncton Center
02:05PM 47.3000 -53.3333 108° East 360 414 17,200 -1,750 Descending Moncton Center
02:06PM 47.2833 -53.2000 100° East 350 403 15,100 -1,800 Descending Moncton Center
02:07PM 47.2833 -53.0667 90° East 330 380 13,600 -1,750 Descending Moncton Center
02:08PM 47.3333 -52.9667 54° Northeast 300 345 11,600 -1,700 Descending Moncton Center
02:09PM 47.3500 -52.8500 78° East 290 334 10,200 -1,662 Descending Moncton Center
02:10PM 47.3833 -52.7333 67° East 270 311 8,000 -1,754 Descending Gander Center
02:11PM 47.4167 -52.6333 64° Northeast 260 299 6,400 -1,800 Descending Gander Center
02:12PM 47.4500 -52.5500 59° Northeast 250 288 4,400 -1,700 Descending Gander Center
02:13PM 47.5000 -52.5667 347° North 220 253 3,000 -1,150 Descending Gander Center
02:14PM 47.5500 -52.6167 326° Northwest 170 196 2,100 -850 Descending Gander Center
02:15PM 47.5667 -52.6500 307° West 130 150 1,300 -750 Descending Gander Center
02:16PM 47.6000 -52.6833 326° Northwest 130 150 600 -400 Descending Gander Center
02:17PM 47.6000 -52.7000 270° West 50 58 500 -100 Descending Gander Center